sensor_id;sensor_type;location;lat;lon;timestamp;pressure;altitude;pressure_sealevel;temperature;humidity
706;BME280;21234;48.690;9.016;2023-03-14T00:01:46;94542.31;;;8.41;100.00
706;BME280;21234;48.690;9.016;2023-03-14T00:04:14;94553.97;;;8.41;100.00
706;BME280;21234;48.690;9.016;2023-03-14T00:06:42;94556.94;;;8.40;100.00
706;BME280;21234;48.690;9.016;2023-03-14T00:09:09;94541.22;;;8.42;100.00
706;BME280;21234;48.690;9.016;2023-03-14T00:11:35;94533.91;;;8.43;100.00
706;BME280;21234;48.690;9.016;2023-03-14T00:14:02;94530.63;;;8.46;100.00
706;BME280;21234;48.690;9.016;2023-03-14T00:16:29;94522.19;;;8.52;100.00
706;BME280;21234;48.690;9.016;2023-03-14T00:18:55;94514.44;;;8.40;100.00
706;BME280;21234;48.690;9.016;2023-03-14T00:21:22;94505.97;;;8.47;100.00
706;BME280;21234;48.690;9.016;2023-03-14T00:23:51;94509.81;;;8.41;100.00
706;BME280;21234;48.690;9.016;2023-03-14T00:26:19;94510.84;;;8.45;100.00
706;BME280;21234;48.690;9.016;2023-03-14T00:28:50;94509.22;;;8.49;100.00
706;BME280;21234;48.690;9.016;2023-03-14T00:31:17;94518.41;;;8.48;100.00
706;BME280;21234;48.690;9.016;2023-03-14T00:33:44;94522.75;;;8.49;100.00
706;BME280;21234;48.690;9.016;2023-03-14T00:36:13;94534.41;;;8.50;100.00
706;BME280;21234;48.690;9.016;2023-03-14T00:38:41;94524.38;;;8.50;100.00
706;BME280;21234;48.690;9.016;2023-03-14T00:41:11;94531.13;;;8.53;100.00
706;BME280;21234;48.690;9.016;2023-03-14T00:43:38;94520.28;;;8.53;100.00
706;BME280;21234;48.690;9.016;2023-03-14T00:46:05;94517.03;;;8.56;100.00
706;BME280;21234;48.690;9.016;2023-03-14T00:48:32;94523.28;;;8.51;100.00
706;BME280;21234;48.690;9.016;2023-03-14T00:50:59;94538.72;;;8.51;100.00
706;BME280;21234;48.690;9.016;2023-03-14T00:53:26;94541.97;;;8.53;100.00
706;BME280;21234;48.690;9.016;2023-03-14T00:55:52;94537.88;;;8.55;100.00
706;BME280;21234;48.690;9.016;2023-03-14T00:58:20;94542.50;;;8.55;100.00
706;BME280;21234;48.690;9.016;2023-03-14T01:00:47;94545.19;;;8.60;100.00
706;BME280;21234;48.690;9.016;2023-03-14T01:03:14;94543.00;;;8.62;100.00
706;BME280;21234;48.690;9.016;2023-03-14T01:05:41;94550.88;;;8.58;100.00
706;BME280;21234;48.690;9.016;2023-03-14T01:08:08;94548.97;;;8.59;100.00
706;BME280;21234;48.690;9.016;2023-03-14T01:10:38;94541.66;;;8.59;100.00
706;BME280;21234;48.690;9.016;2023-03-14T01:13:05;94541.16;;;8.52;100.00
706;BME280;21234;48.690;9.016;2023-03-14T01:15:34;94535.44;;;8.59;100.00
706;BME280;21234;48.690;9.016;2023-03-14T01:18:01;94534.31;;;8.65;100.00
706;BME280;21234;48.690;9.016;2023-03-14T01:20:28;94520.56;;;8.56;100.00
706;BME280;21234;48.690;9.016;2023-03-14T01:22:55;94504.31;;;8.56;100.00
706;BME280;21234;48.690;9.016;2023-03-14T01:25:22;94489.63;;;8.62;100.00
706;BME280;21234;48.690;9.016;2023-03-14T01:27:48;94489.91;;;8.61;100.00
706;BME280;21234;48.690;9.016;2023-03-14T01:30:15;94494.00;;;8.58;100.00
706;BME280;21234;48.690;9.016;2023-03-14T01:32:43;94486.44;;;8.55;100.00
706;BME280;21234;48.690;9.016;2023-03-14T01:35:10;94485.72;;;8.45;100.00
706;BME280;21234;48.690;9.016;2023-03-14T01:37:37;94466.16;;;8.48;100.00
706;BME280;21234;48.690;9.016;2023-03-14T01:40:04;94458.03;;;8.48;100.00
706;BME280;21234;48.690;9.016;2023-03-14T01:42:32;94458.38;;;8.41;100.00
706;BME280;21234;48.690;9.016;2023-03-14T01:45:00;94436.19;;;8.39;100.00
706;BME280;21234;48.690;9.016;2023-03-14T01:47:27;94428.09;;;8.34;100.00
706;BME280;21234;48.690;9.016;2023-03-14T01:49:59;94433.22;;;8.35;100.00
706;BME280;21234;48.690;9.016;2023-03-14T01:52:29;94425.91;;;8.31;100.00
706;BME280;21234;48.690;9.016;2023-03-14T01:55:03;94427.56;;;8.27;100.00
706;BME280;21234;48.690;9.016;2023-03-14T01:57:33;94434.59;;;8.28;100.00
706;BME280;21234;48.690;9.016;2023-03-14T02:00:05;94435.69;;;8.27;100.00
706;BME280;21234;48.690;9.016;2023-03-14T02:02:37;94441.63;;;8.29;100.00
706;BME280;21234;48.690;9.016;2023-03-14T02:05:08;94442.19;;;8.21;100.00
706;BME280;21234;48.690;9.016;2023-03-14T02:07:38;94446.25;;;8.23;100.00
706;BME280;21234;48.690;9.016;2023-03-14T02:10:08;94443.25;;;8.25;100.00
706;BME280;21234;48.690;9.016;2023-03-14T02:12:36;94442.72;;;8.23;100.00
706;BME280;21234;48.690;9.016;2023-03-14T02:15:03;94448.97;;;8.23;100.00
706;BME280;21234;48.690;9.016;2023-03-14T02:17:30;94450.31;;;8.21;100.00
706;BME280;21234;48.690;9.016;2023-03-14T02:22:46;94436.50;;;8.22;100.00
706;BME280;21234;48.690;9.016;2023-03-14T02:25:17;94433.25;;;8.25;100.00
706;BME280;21234;48.690;9.016;2023-03-14T02:27:52;94425.44;;;8.19;100.00
706;BME280;21234;48.690;9.016;2023-03-14T02:30:20;94415.72;;;8.13;100.00
706;BME280;21234;48.690;9.016;2023-03-14T02:32:51;94416.78;;;8.17;100.00
706;BME280;21234;48.690;9.016;2023-03-14T02:35:21;94421.94;;;8.13;100.00
706;BME280;21234;48.690;9.016;2023-03-14T02:37:52;94423.53;;;8.19;100.00
706;BME280;21234;48.690;9.016;2023-03-14T02:40:21;94422.47;;;8.15;100.00
706;BME280;21234;48.690;9.016;2023-03-14T02:42:48;94405.41;;;8.15;100.00
706;BME280;21234;48.690;9.016;2023-03-14T02:45:42;94411.38;;;8.17;100.00
706;BME280;21234;48.690;9.016;2023-03-14T02:48:14;94418.94;;;8.20;100.00
706;BME280;21234;48.690;9.016;2023-03-14T02:50:43;94401.41;;;8.12;100.00
706;BME280;21234;48.690;9.016;2023-03-14T02:53:13;94404.41;;;8.05;100.00
706;BME280;21234;48.690;9.016;2023-03-14T02:55:44;94397.91;;;8.06;100.00
706;BME280;21234;48.690;9.016;2023-03-14T02:58:12;94381.16;;;8.04;100.00
706;BME280;21234;48.690;9.016;2023-03-14T03:00:38;94383.03;;;8.09;100.00
706;BME280;21234;48.690;9.016;2023-03-14T03:03:06;94376.28;;;8.06;100.00
706;BME280;21234;48.690;9.016;2023-03-14T03:05:33;94373.06;;;7.99;100.00
706;BME280;21234;48.690;9.016;2023-03-14T03:08:00;94379.56;;;7.98;100.00
706;BME280;21234;48.690;9.016;2023-03-14T03:10:26;94367.66;;;7.99;100.00
706;BME280;21234;48.690;9.016;2023-03-14T03:12:53;94355.72;;;8.00;100.00
706;BME280;21234;48.690;9.016;2023-03-14T03:15:20;94346.56;;;7.96;100.00
706;BME280;21234;48.690;9.016;2023-03-14T03:17:47;94350.31;;;8.00;100.00
706;BME280;21234;48.690;9.016;2023-03-14T03:20:15;94342.78;;;7.92;100.00
706;BME280;21234;48.690;9.016;2023-03-14T03:22:42;94359.03;;;7.92;100.00
706;BME280;21234;48.690;9.016;2023-03-14T03:25:09;94348.75;;;7.89;100.00
706;BME280;21234;48.690;9.016;2023-03-14T03:27:37;94345.28;;;7.84;100.00
706;BME280;21234;48.690;9.016;2023-03-14T03:30:06;94336.06;;;7.85;100.00
706;BME280;21234;48.690;9.016;2023-03-14T03:32:34;94323.63;;;7.84;100.00
706;BME280;21234;48.690;9.016;2023-03-14T03:35:02;94320.16;;;7.78;100.00
706;BME280;21234;48.690;9.016;2023-03-14T03:37:31;94330.47;;;7.76;100.00
706;BME280;21234;48.690;9.016;2023-03-14T03:39:58;94323.19;;;7.71;100.00
706;BME280;21234;48.690;9.016;2023-03-14T03:42:26;94321.53;;;7.75;100.00
706;BME280;21234;48.690;9.016;2023-03-14T03:44:53;94326.16;;;7.70;100.00
706;BME280;21234;48.690;9.016;2023-03-14T03:47:20;94321.28;;;7.72;100.00
706;BME280;21234;48.690;9.016;2023-03-14T03:49:46;94314.00;;;7.67;99.05
706;BME280;21234;48.690;9.016;2023-03-14T03:52:13;94295.31;;;7.71;100.00
706;BME280;21234;48.690;9.016;2023-03-14T03:54:41;94309.38;;;7.73;100.00
706;BME280;21234;48.690;9.016;2023-03-14T03:57:07;94300.22;;;7.69;99.30
706;BME280;21234;48.690;9.016;2023-03-14T03:59:34;94296.16;;;7.66;98.36
706;BME280;21234;48.690;9.016;2023-03-14T04:02:01;94302.41;;;7.62;97.59
706;BME280;21234;48.690;9.016;2023-03-14T04:04:27;94304.56;;;7.65;98.08
706;BME280;21234;48.690;9.016;2023-03-14T04:06:54;94307.25;;;7.65;97.34
706;BME280;21234;48.690;9.016;2023-03-14T04:09:21;94299.69;;;7.67;96.90
706;BME280;21234;48.690;9.016;2023-03-14T04:11:49;94297.53;;;7.64;96.97
706;BME280;21234;48.690;9.016;2023-03-14T04:14:15;94294.25;;;7.72;96.64
706;BME280;21234;48.690;9.016;2023-03-14T04:16:42;94291.56;;;7.67;97.35
706;BME280;21234;48.690;9.016;2023-03-14T04:19:09;94295.59;;;7.69;97.39
706;BME280;21234;48.690;9.016;2023-03-14T04:21:35;94288.56;;;7.68;97.58
706;BME280;21234;48.690;9.016;2023-03-14T04:24:06;94293.47;;;7.61;97.43
706;BME280;21234;48.690;9.016;2023-03-14T04:26:32;94287.78;;;7.63;96.35
706;BME280;21234;48.690;9.016;2023-03-14T04:29:00;94284.00;;;7.64;95.95
706;BME280;21234;48.690;9.016;2023-03-14T04:31:27;94284.81;;;7.64;95.98
706;BME280;21234;48.690;9.016;2023-03-14T04:33:54;94286.72;;;7.64;96.18
706;BME280;21234;48.690;9.016;2023-03-14T04:36:21;94276.44;;;7.61;96.14
706;BME280;21234;48.690;9.016;2023-03-14T04:38:47;94264.00;;;7.60;96.69
706;BME280;21234;48.690;9.016;2023-03-14T04:41:14;94261.28;;;7.65;95.45
706;BME280;21234;48.690;9.016;2023-03-14T04:43:40;94261.81;;;7.67;95.12
706;BME280;21234;48.690;9.016;2023-03-14T04:46:09;94259.91;;;7.67;94.25
706;BME280;21234;48.690;9.016;2023-03-14T04:48:35;94266.41;;;7.66;94.74
706;BME280;21234;48.690;9.016;2023-03-14T04:51:03;94264.00;;;7.65;94.56
706;BME280;21234;48.690;9.016;2023-03-14T04:53:30;94263.72;;;7.66;94.48
706;BME280;21234;48.690;9.016;2023-03-14T04:55:56;94251.56;;;7.64;94.45
706;BME280;21234;48.690;9.016;2023-03-14T04:58:23;94242.38;;;7.60;95.51
706;BME280;21234;48.690;9.016;2023-03-14T05:00:50;94245.38;;;7.58;95.39
706;BME280;21234;48.690;9.016;2023-03-14T05:03:18;94236.19;;;7.54;95.57
706;BME280;21234;48.690;9.016;2023-03-14T05:05:46;94238.94;;;7.49;95.97
706;BME280;21234;48.690;9.016;2023-03-14T05:08:13;94237.66;;;7.41;96.17
706;BME280;21234;48.690;9.016;2023-03-14T05:10:39;94233.56;;;7.44;95.91
706;BME280;21234;48.690;9.016;2023-03-14T05:13:06;94233.56;;;7.44;96.16
706;BME280;21234;48.690;9.016;2023-03-14T05:15:33;94231.72;;;7.39;95.94
706;BME280;21234;48.690;9.016;2023-03-14T05:18:00;94218.38;;;7.48;95.17
706;BME280;21234;48.690;9.016;2023-03-14T05:20:27;94217.66;;;7.37;96.73
706;BME280;21234;48.690;9.016;2023-03-14T05:22:54;94218.22;;;7.34;94.88
706;BME280;21234;48.690;9.016;2023-03-14T05:25:21;94223.88;;;7.38;95.43
706;BME280;21234;48.690;9.016;2023-03-14T05:27:48;94223.31;;;7.41;94.68
706;BME280;21234;48.690;9.016;2023-03-14T05:30:14;94213.88;;;7.38;94.92
706;BME280;21234;48.690;9.016;2023-03-14T05:32:41;94209.28;;;7.39;96.24
706;BME280;21234;48.690;9.016;2023-03-14T05:35:09;94207.34;;;7.45;94.78
706;BME280;21234;48.690;9.016;2023-03-14T05:37:37;94212.75;;;7.45;95.20
706;BME280;21234;48.690;9.016;2023-03-14T05:40:05;94193.56;;;7.46;94.71
706;BME280;21234;48.690;9.016;2023-03-14T05:42:34;94199.53;;;7.43;94.22
706;BME280;21234;48.690;9.016;2023-03-14T05:45:00;94204.13;;;7.43;94.17
706;BME280;21234;48.690;9.016;2023-03-14T05:47:27;94202.78;;;7.40;94.79
706;BME280;21234;48.690;9.016;2023-03-14T05:49:54;94199.31;;;7.34;95.61
706;BME280;21234;48.690;9.016;2023-03-14T05:52:20;94206.03;;;7.37;94.19
706;BME280;21234;48.690;9.016;2023-03-14T05:54:49;94205.75;;;7.38;94.42
706;BME280;21234;48.690;9.016;2023-03-14T05:57:15;94199.81;;;7.41;94.30
706;BME280;21234;48.690;9.016;2023-03-14T05:59:42;94197.66;;;7.38;93.54
706;BME280;21234;48.690;9.016;2023-03-14T06:02:08;94203.34;;;7.37;94.27
706;BME280;21234;48.690;9.016;2023-03-14T06:04:35;94215.22;;;7.41;93.13
706;BME280;21234;48.690;9.016;2023-03-14T06:07:02;94211.13;;;7.44;92.93
706;BME280;21234;48.690;9.016;2023-03-14T06:09:29;94211.31;;;7.57;92.53
706;BME280;21234;48.690;9.016;2023-03-14T06:11:57;94215.34;;;7.60;91.93
706;BME280;21234;48.690;9.016;2023-03-14T06:14:23;94201.81;;;7.60;90.92
706;BME280;21234;48.690;9.016;2023-03-14T06:16:51;94203.69;;;7.64;90.58
706;BME280;21234;48.690;9.016;2023-03-14T06:19:19;94195.03;;;7.62;90.04
706;BME280;21234;48.690;9.016;2023-03-14T06:21:46;94201.25;;;7.63;90.69
706;BME280;21234;48.690;9.016;2023-03-14T06:24:13;94202.06;;;7.63;91.28
706;BME280;21234;48.690;9.016;2023-03-14T06:26:39;94189.59;;;7.67;90.31
706;BME280;21234;48.690;9.016;2023-03-14T06:29:07;94183.38;;;7.67;90.10
706;BME280;21234;48.690;9.016;2023-03-14T06:31:35;94180.94;;;7.70;89.24
706;BME280;21234;48.690;9.016;2023-03-14T06:34:02;94175.75;;;7.74;89.35
706;BME280;21234;48.690;9.016;2023-03-14T06:36:29;94167.09;;;7.77;89.98
706;BME280;21234;48.690;9.016;2023-03-14T06:38:56;94176.53;;;7.80;88.40
706;BME280;21234;48.690;9.016;2023-03-14T06:41:22;94158.63;;;7.84;88.75
706;BME280;21234;48.690;9.016;2023-03-14T06:43:51;94170.44;;;7.93;88.33
706;BME280;21234;48.690;9.016;2023-03-14T06:46:19;94168.22;;;8.00;88.06
706;BME280;21234;48.690;9.016;2023-03-14T06:48:46;94166.44;;;8.14;86.74
706;BME280;21234;48.690;9.016;2023-03-14T06:51:12;94168.72;;;8.60;83.99
706;BME280;21234;48.690;9.016;2023-03-14T06:53:39;94169.47;;;8.65;83.26
706;BME280;21234;48.690;9.016;2023-03-14T06:56:07;94168.91;;;8.45;84.00
706;BME280;21234;48.690;9.016;2023-03-14T06:58:34;94184.16;;;8.30;85.04
706;BME280;21234;48.690;9.016;2023-03-14T07:01:01;94188.34;;;8.18;86.57
706;BME280;21234;48.690;9.016;2023-03-14T07:03:29;94187.19;;;8.24;85.75
706;BME280;21234;48.690;9.016;2023-03-14T07:05:55;94188.19;;;8.38;85.61
706;BME280;21234;48.690;9.016;2023-03-14T07:08:22;94200.78;;;8.48;84.97
706;BME280;21234;48.690;9.016;2023-03-14T07:10:49;94213.06;;;8.40;84.95
706;BME280;21234;48.690;9.016;2023-03-14T07:13:16;94213.06;;;8.40;84.69
706;BME280;21234;48.690;9.016;2023-03-14T07:15:42;94220.91;;;8.41;85.57
706;BME280;21234;48.690;9.016;2023-03-14T07:18:09;94222.19;;;8.73;83.99
706;BME280;21234;48.690;9.016;2023-03-14T07:20:37;94219.25;;;9.55;79.89
706;BME280;21234;48.690;9.016;2023-03-14T07:23:04;94217.69;;;10.19;74.68
706;BME280;21234;48.690;9.016;2023-03-14T07:25:30;94216.88;;;9.86;76.28
706;BME280;21234;48.690;9.016;2023-03-14T07:27:57;94213.00;;;11.25;72.16
706;BME280;21234;48.690;9.016;2023-03-14T07:30:23;94212.19;;;12.10;67.14
706;BME280;21234;48.690;9.016;2023-03-14T07:32:50;94212.50;;;11.37;68.63
706;BME280;21234;48.690;9.016;2023-03-14T07:35:17;94214.09;;;11.38;67.26
706;BME280;21234;48.690;9.016;2023-03-14T07:37:45;94217.25;;;11.81;66.13
706;BME280;21234;48.690;9.016;2023-03-14T07:40:12;94223.28;;;12.67;62.96
706;BME280;21234;48.690;9.016;2023-03-14T07:42:40;94221.50;;;13.33;60.54
706;BME280;21234;48.690;9.016;2023-03-14T07:45:08;94217.78;;;13.21;60.71
706;BME280;21234;48.690;9.016;2023-03-14T07:47:35;94214.50;;;13.67;58.99
706;BME280;21234;48.690;9.016;2023-03-14T07:50:02;94213.72;;;14.53;57.04
706;BME280;21234;48.690;9.016;2023-03-14T07:52:29;94224.78;;;14.39;55.16
706;BME280;21234;48.690;9.016;2023-03-14T07:54:57;94224.63;;;14.35;56.15
706;BME280;21234;48.690;9.016;2023-03-14T07:57:24;94212.78;;;14.95;53.94
706;BME280;21234;48.690;9.016;2023-03-14T07:59:50;94230.47;;;15.44;51.07
706;BME280;21234;48.690;9.016;2023-03-14T08:02:17;94224.34;;;15.77;52.36
706;BME280;21234;48.690;9.016;2023-03-14T08:04:47;94226.66;;;16.17;50.21
706;BME280;21234;48.690;9.016;2023-03-14T08:07:14;94227.69;;;14.34;54.55
706;BME280;21234;48.690;9.016;2023-03-14T08:09:40;94233.56;;;12.70;59.22
706;BME280;21234;48.690;9.016;2023-03-14T08:12:08;94228.13;;;11.31;64.06
706;BME280;21234;48.690;9.016;2023-03-14T08:14:35;94227.91;;;10.87;66.51
706;BME280;21234;48.690;9.016;2023-03-14T08:17:02;94235.63;;;10.52;68.43
706;BME280;21234;48.690;9.016;2023-03-14T08:19:28;94233.84;;;11.16;67.10
706;BME280;21234;48.690;9.016;2023-03-14T08:21:55;94244.06;;;12.55;62.19
706;BME280;21234;48.690;9.016;2023-03-14T08:24:22;94229.94;;;12.53;59.20
706;BME280;21234;48.690;9.016;2023-03-14T08:26:48;94236.81;;;12.50;59.94
706;BME280;21234;48.690;9.016;2023-03-14T08:29:16;94231.81;;;11.99;62.14
706;BME280;21234;48.690;9.016;2023-03-14T08:31:43;94236.97;;;11.37;63.72
706;BME280;21234;48.690;9.016;2023-03-14T08:34:10;94243.41;;;11.41;64.84
706;BME280;21234;48.690;9.016;2023-03-14T08:36:37;94237.47;;;11.11;66.76
706;BME280;21234;48.690;9.016;2023-03-14T08:39:03;94235.56;;;10.85;68.22
706;BME280;21234;48.690;9.016;2023-03-14T08:41:32;94248.03;;;10.26;68.30
706;BME280;21234;48.690;9.016;2023-03-14T08:44:00;94243.72;;;10.06;69.97
706;BME280;21234;48.690;9.016;2023-03-14T08:46:28;94257.59;;;10.04;71.07
706;BME280;21234;48.690;9.016;2023-03-14T08:48:54;94252.28;;;10.13;71.01
706;BME280;21234;48.690;9.016;2023-03-14T08:51:21;94253.28;;;10.17;71.98
706;BME280;21234;48.690;9.016;2023-03-14T08:53:48;94258.72;;;10.36;72.72
706;BME280;21234;48.690;9.016;2023-03-14T08:56:14;94265.94;;;10.27;72.36
706;BME280;21234;48.690;9.016;2023-03-14T08:58:42;94264.03;;;10.27;74.97
706;BME280;21234;48.690;9.016;2023-03-14T09:01:10;94268.97;;;10.06;77.31
706;BME280;21234;48.690;9.016;2023-03-14T09:03:38;94277.22;;;9.77;77.79
706;BME280;21234;48.690;9.016;2023-03-14T09:06:07;94275.28;;;9.64;79.48
706;BME280;21234;48.690;9.016;2023-03-14T09:08:34;94263.84;;;9.67;80.62
706;BME280;21234;48.690;9.016;2023-03-14T09:11:01;94272.84;;;9.63;80.32
706;BME280;21234;48.690;9.016;2023-03-14T09:13:28;94275.97;;;9.51;80.77
706;BME280;21234;48.690;9.016;2023-03-14T09:15:56;94271.41;;;9.47;80.03
706;BME280;21234;48.690;9.016;2023-03-14T09:18:23;94272.63;;;9.59;81.12
706;BME280;21234;48.690;9.016;2023-03-14T09:20:51;94274.88;;;9.52;78.28
706;BME280;21234;48.690;9.016;2023-03-14T09:23:17;94271.00;;;9.58;77.85
706;BME280;21234;48.690;9.016;2023-03-14T09:25:44;94272.09;;;9.57;77.10
706;BME280;21234;48.690;9.016;2023-03-14T09:28:10;94282.31;;;9.65;77.32
706;BME280;21234;48.690;9.016;2023-03-14T09:30:38;94287.16;;;9.68;76.68
706;BME280;21234;48.690;9.016;2023-03-14T09:33:05;94283.56;;;9.73;76.35
706;BME280;21234;48.690;9.016;2023-03-14T09:35:33;94278.25;;;9.82;76.26
706;BME280;21234;48.690;9.016;2023-03-14T09:38:01;94289.84;;;9.87;74.18
706;BME280;21234;48.690;9.016;2023-03-14T09:40:31;94304.16;;;9.93;74.52
706;BME280;21234;48.690;9.016;2023-03-14T09:43:00;94294.53;;;9.82;75.70
706;BME280;21234;48.690;9.016;2023-03-14T09:45:28;94299.91;;;9.68;75.44
706;BME280;21234;48.690;9.016;2023-03-14T09:47:58;94307.00;;;9.83;75.76
706;BME280;21234;48.690;9.016;2023-03-14T09:50:27;94305.50;;;9.95;76.16
706;BME280;21234;48.690;9.016;2023-03-14T09:53:03;94305.56;;;9.90;75.85
706;BME280;21234;48.690;9.016;2023-03-14T09:55:31;94312.16;;;10.03;76.28
706;BME280;21234;48.690;9.016;2023-03-14T09:58:02;94319.50;;;10.02;75.10
706;BME280;21234;48.690;9.016;2023-03-14T10:00:31;94321.78;;;10.33;75.00
706;BME280;21234;48.690;9.016;2023-03-14T10:03:00;94314.09;;;10.54;73.36
706;BME280;21234;48.690;9.016;2023-03-14T10:05:40;94308.34;;;10.88;72.93
706;BME280;21234;48.690;9.016;2023-03-14T10:08:10;94313.53;;;11.44;70.24
706;BME280;21234;48.690;9.016;2023-03-14T10:10:37;94302.34;;;11.87;67.25
706;BME280;21234;48.690;9.016;2023-03-14T10:13:13;94298.63;;;11.69;67.51
706;BME280;21234;48.690;9.016;2023-03-14T10:15:41;94296.69;;;11.83;65.86
706;BME280;21234;48.690;9.016;2023-03-14T10:18:11;94283.88;;;11.84;66.12
706;BME280;21234;48.690;9.016;2023-03-14T10:20:40;94290.25;;;11.52;67.03
706;BME280;21234;48.690;9.016;2023-03-14T10:23:21;94301.22;;;11.05;67.32
706;BME280;21234;48.690;9.016;2023-03-14T10:26:00;94295.41;;;10.98;68.49
706;BME280;21234;48.690;9.016;2023-03-14T10:28:30;94296.91;;;11.04;69.04
706;BME280;21234;48.690;9.016;2023-03-14T10:30:57;94298.09;;;11.12;68.11
706;BME280;21234;48.690;9.016;2023-03-14T10:33:26;94299.81;;;11.08;68.85
706;BME280;21234;48.690;9.016;2023-03-14T10:35:54;94297.50;;;11.01;68.71
706;BME280;21234;48.690;9.016;2023-03-14T10:38:25;94298.25;;;10.74;69.67
706;BME280;21234;48.690;9.016;2023-03-14T10:40:54;94293.34;;;10.44;69.47
706;BME280;21234;48.690;9.016;2023-03-14T10:43:23;94303.22;;;10.21;70.51
706;BME280;21234;48.690;9.016;2023-03-14T10:45:54;94295.28;;;10.25;72.41
706;BME280;21234;48.690;9.016;2023-03-14T10:48:29;94306.28;;;10.15;74.04
706;BME280;21234;48.690;9.016;2023-03-14T10:51:03;94299.47;;;9.98;74.78
706;BME280;21234;48.690;9.016;2023-03-14T10:53:39;94306.44;;;10.04;75.74
706;BME280;21234;48.690;9.016;2023-03-14T10:56:06;94306.28;;;9.96;74.95
706;BME280;21234;48.690;9.016;2023-03-14T10:58:37;94311.22;;;9.94;75.58
706;BME280;21234;48.690;9.016;2023-03-14T11:01:14;94323.53;;;10.05;75.95
706;BME280;21234;48.690;9.016;2023-03-14T11:03:47;94322.56;;;10.15;75.33
706;BME280;21234;48.690;9.016;2023-03-14T11:06:21;94318.91;;;10.05;75.79
706;BME280;21234;48.690;9.016;2023-03-14T11:08:55;94339.84;;;10.05;76.58
706;BME280;21234;48.690;9.016;2023-03-14T11:11:26;94340.72;;;10.00;78.56
706;BME280;21234;48.690;9.016;2023-03-14T11:14:02;94340.09;;;9.85;78.20
706;BME280;21234;48.690;9.016;2023-03-14T11:16:34;94347.25;;;9.75;78.41
706;BME280;21234;48.690;9.016;2023-03-14T11:19:27;94355.63;;;9.60;78.58
706;BME280;21234;48.690;9.016;2023-03-14T11:21:59;94350.25;;;9.55;80.09
706;BME280;21234;48.690;9.016;2023-03-14T11:24:44;94344.19;;;9.63;82.05
706;BME280;21234;48.690;9.016;2023-03-14T11:27:17;94350.16;;;9.41;85.89
706;BME280;21234;48.690;9.016;2023-03-14T11:29:53;94359.16;;;9.37;88.13
706;BME280;21234;48.690;9.016;2023-03-14T11:32:28;94368.16;;;9.32;88.21
706;BME280;21234;48.690;9.016;2023-03-14T11:35:02;94365.22;;;9.29;87.95
706;BME280;21234;48.690;9.016;2023-03-14T11:37:33;94367.41;;;9.27;88.09
706;BME280;21234;48.690;9.016;2023-03-14T11:40:06;94373.81;;;9.36;91.08
706;BME280;21234;48.690;9.016;2023-03-14T11:42:35;94366.81;;;9.30;86.85
706;BME280;21234;48.690;9.016;2023-03-14T11:45:03;94372.25;;;9.30;88.68
706;BME280;21234;48.690;9.016;2023-03-14T11:47:33;94377.56;;;9.40;88.86
706;BME280;21234;48.690;9.016;2023-03-14T11:50:04;94375.25;;;9.28;87.26
706;BME280;21234;48.690;9.016;2023-03-14T11:52:36;94376.69;;;9.21;86.89
706;BME280;21234;48.690;9.016;2023-03-14T11:55:10;94376.25;;;9.37;88.91
706;BME280;21234;48.690;9.016;2023-03-14T11:57:39;94373.69;;;9.46;90.24
706;BME280;21234;48.690;9.016;2023-03-14T12:00:14;94400.16;;;9.30;90.19
706;BME280;21234;48.690;9.016;2023-03-14T12:02:48;94402.50;;;9.13;91.46
706;BME280;21234;48.690;9.016;2023-03-14T12:05:31;94410.59;;;9.18;92.78
706;BME280;21234;48.690;9.016;2023-03-14T12:11:11;94431.13;;;9.24;91.36
706;BME280;21234;48.690;9.016;2023-03-14T12:13:39;94428.63;;;9.04;87.71
706;BME280;21234;48.690;9.016;2023-03-14T12:16:19;94443.47;;;9.40;86.46
706;BME280;21234;48.690;9.016;2023-03-14T12:18:46;94439.84;;;9.74;83.69
706;BME280;21234;48.690;9.016;2023-03-14T12:21:13;94457.41;;;9.76;77.98
706;BME280;21234;48.690;9.016;2023-03-14T12:23:42;94462.75;;;9.63;76.71
706;BME280;21234;48.690;9.016;2023-03-14T12:26:16;94473.25;;;9.69;72.31
706;BME280;21234;48.690;9.016;2023-03-14T12:28:48;94490.44;;;9.60;73.63
706;BME280;21234;48.690;9.016;2023-03-14T12:31:38;94480.00;;;8.85;72.77
706;BME280;21234;48.690;9.016;2023-03-14T12:34:30;94495.31;;;9.05;69.54
706;BME280;21234;48.690;9.016;2023-03-14T12:37:14;94503.06;;;9.46;68.25
706;BME280;21234;48.690;9.016;2023-03-14T12:39:50;94513.44;;;9.38;67.47
706;BME280;21234;48.690;9.016;2023-03-14T12:42:37;94527.75;;;9.44;66.38
706;BME280;21234;48.690;9.016;2023-03-14T12:45:21;94522.34;;;9.73;66.30
706;BME280;21234;48.690;9.016;2023-03-14T12:48:09;94534.44;;;10.33;66.51
706;BME280;21234;48.690;9.016;2023-03-14T12:50:44;94547.31;;;10.47;58.57
706;BME280;21234;48.690;9.016;2023-03-14T12:56:27;94592.53;;;10.37;54.66
706;BME280;21234;48.690;9.016;2023-03-14T13:01:56;94586.91;;;9.08;59.48
706;BME280;21234;48.690;9.016;2023-03-14T13:04:28;94606.09;;;9.12;58.96
706;BME280;21234;48.690;9.016;2023-03-14T13:06:57;94607.22;;;9.44;56.28
706;BME280;21234;48.690;9.016;2023-03-14T13:09:50;94620.34;;;8.83;55.42
706;BME280;21234;48.690;9.016;2023-03-14T13:12:23;94639.09;;;10.26;53.00
706;BME280;21234;48.690;9.016;2023-03-14T13:14:53;94641.34;;;9.85;54.01
706;BME280;21234;48.690;9.016;2023-03-14T13:17:25;94657.50;;;10.00;52.24
706;BME280;21234;48.690;9.016;2023-03-14T13:19:56;94666.94;;;9.39;53.42
706;BME280;21234;48.690;9.016;2023-03-14T13:22:25;94686.09;;;9.09;54.00
706;BME280;21234;48.690;9.016;2023-03-14T13:25:00;94697.84;;;8.89;55.21
706;BME280;21234;48.690;9.016;2023-03-14T13:27:30;94703.59;;;9.32;51.60
706;BME280;21234;48.690;9.016;2023-03-14T13:29:57;94706.78;;;8.90;51.71
706;BME280;21234;48.690;9.016;2023-03-14T13:32:28;94711.25;;;8.50;53.71
706;BME280;21234;48.690;9.016;2023-03-14T13:34:56;94723.22;;;8.03;53.35
706;BME280;21234;48.690;9.016;2023-03-14T13:37:25;94736.47;;;7.80;54.06
706;BME280;21234;48.690;9.016;2023-03-14T13:39:52;94731.31;;;7.68;54.17
706;BME280;21234;48.690;9.016;2023-03-14T13:42:21;94754.00;;;7.47;54.91
706;BME280;21234;48.690;9.016;2023-03-14T13:44:51;94766.72;;;7.56;54.77
706;BME280;21234;48.690;9.016;2023-03-14T13:47:20;94756.50;;;7.79;52.83
706;BME280;21234;48.690;9.016;2023-03-14T13:49:50;94785.97;;;7.70;51.61